Time;durP1;ratioP1;P1;durP2;ratioP2;P2;SDS_P1;SDS_P2;PMS_P1;PMS_P2;Temp;Humidity;BMP_temperature;BMP_pressure;BME280_temperature;BME280_humidity;BME280_pressure;Samples;Min_cycle;Max_cycle;Signal;HPM_P1;HPM_P2
2022/12/11 00:01:35;;;;;;;74.53;27.00;;;3.50;99.90;;;;;;5072944;28;20107;-79
2022/12/11 00:04:00;;;;;;;70.13;25.40;;;3.40;99.90;;;;;;5071196;28;20432;-79
2022/12/11 00:06:26;;;;;;;71.72;24.92;;;3.40;99.90;;;;;;5070837;28;20037;-79
2022/12/11 00:08:53;;;;;;;78.90;26.75;;;3.40;99.90;;;;;;5071950;28;20052;-78
2022/12/11 00:11:20;;;;;;;80.10;27.25;;;3.40;99.90;;;;;;5072696;28;20087;-78
2022/12/11 00:13:45;;;;;;;73.05;26.65;;;3.40;99.90;;;;;;5073630;28;20240;-79
2022/12/11 00:16:12;;;;;;;76.90;26.45;;;3.40;99.90;;;;;;5075054;28;20112;-78
2022/12/11 00:18:37;;;;;;;73.93;26.67;;;3.40;99.90;;;;;;5075107;28;20036;-79
2022/12/11 00:21:05;;;;;;;70.00;24.92;;;3.40;99.90;;;;;;5074492;28;20571;-79
2022/12/11 00:23:33;;;;;;;76.97;26.52;;;3.40;99.90;;;;;;5058633;28;20424;-79
2022/12/11 00:25:59;;;;;;;82.88;27.25;;;3.40;99.90;;;;;;5058912;28;20533;-79
2022/12/11 00:28:24;;;;;;;77.00;26.42;;;3.40;99.90;;;;;;5055286;28;20128;-79
2022/12/11 00:30:50;;;;;;;75.88;25.17;;;3.40;99.90;;;;;;5054775;28;20037;-79
2022/12/11 00:33:16;;;;;;;79.32;26.13;;;3.40;99.90;;;;;;5054723;28;20065;-79
2022/12/11 00:35:44;;;;;;;77.90;25.60;;;3.40;99.90;;;;;;5069208;28;20078;-78
2022/12/11 00:38:16;;;;;;;72.57;25.25;;;3.40;99.90;;;;;;5073100;28;20039;-78
2022/12/11 00:40:42;;;;;;;71.95;26.20;;;3.50;99.90;;;;;;5075899;28;20028;-78
2022/12/11 00:43:07;;;;;;;69.50;25.00;;;3.50;99.90;;;;;;5075864;28;20542;-78
2022/12/11 00:45:37;;;;;;;76.32;28.23;;;3.50;99.90;;;;;;5070332;28;20039;-78
2022/12/11 00:48:03;;;;;;;71.00;25.05;;;3.50;99.90;;;;;;5074497;28;20159;-78
2022/12/11 00:50:29;;;;;;;68.93;24.90;;;3.50;99.90;;;;;;5073756;28;20036;-78
2022/12/11 00:52:55;;;;;;;68.65;24.80;;;3.50;99.90;;;;;;5074783;28;20033;-78
2022/12/11 00:55:20;;;;;;;70.70;24.67;;;3.50;99.90;;;;;;5057892;28;20461;-78
2022/12/11 00:57:46;;;;;;;66.70;24.45;;;3.50;99.90;;;;;;5074290;28;20056;-79
2022/12/11 01:00:12;;;;;;;67.55;24.17;;;3.50;99.90;;;;;;5075403;28;20483;-77
2022/12/11 01:02:38;;;;;;;70.18;24.48;;;3.60;99.90;;;;;;5053607;28;20068;-78
2022/12/11 01:05:04;;;;;;;66.72;24.48;;;3.60;99.90;;;;;;5087804;28;20065;-78
2022/12/11 01:07:30;;;;;;;66.80;23.98;;;3.60;99.90;;;;;;5055727;28;20489;-78
2022/12/11 01:12:39;;;;;;;67.22;25.02;;;3.70;99.90;;;;;;5054443;28;20100;-78
2022/12/11 01:15:05;;;;;;;67.40;23.70;;;3.70;99.90;;;;;;5069545;28;20032;-78
2022/12/11 01:17:31;;;;;;;64.55;24.50;;;3.70;99.90;;;;;;5091236;28;20036;-78
2022/12/11 01:19:56;;;;;;;61.83;24.42;;;3.70;99.90;;;;;;5075330;28;20028;-77
2022/12/11 01:22:22;;;;;;;61.00;24.17;;;3.70;99.90;;;;;;5073220;28;20492;-78
2022/12/11 01:24:48;;;;;;;69.25;25.90;;;3.80;99.90;;;;;;5073551;28;20075;-78
2022/12/11 01:27:14;;;;;;;68.18;24.90;;;3.70;99.90;;;;;;5057146;28;20082;-78
2022/12/11 01:29:40;;;;;;;63.97;24.30;;;3.70;99.90;;;;;;5059748;28;20037;-78
2022/12/11 01:32:05;;;;;;;66.97;24.95;;;3.80;99.90;;;;;;5053917;28;20033;-78
2022/12/11 01:34:32;;;;;;;70.38;25.25;;;3.70;99.90;;;;;;5053450;28;20037;-78
2022/12/11 01:36:58;;;;;;;66.47;25.30;;;3.80;99.90;;;;;;5055031;28;20025;-78
2022/12/11 01:39:23;;;;;;;66.75;24.10;;;3.80;99.90;;;;;;5062868;28;20439;-78
2022/12/11 01:41:49;;;;;;;62.75;24.35;;;3.80;99.90;;;;;;5073534;28;20036;-78
2022/12/11 01:44:15;;;;;;;66.32;25.30;;;3.80;99.90;;;;;;5073460;28;20029;-78
2022/12/11 01:46:42;;;;;;;69.10;26.23;;;3.80;99.90;;;;;;5074489;28;20020;-78
2022/12/11 01:49:12;;;;;;;69.70;25.60;;;3.80;99.90;;;;;;5074451;28;20393;-78
2022/12/11 01:52:01;;;;;;;72.53;26.50;;;3.70;99.90;;;;;;5072989;28;20037;-78
2022/12/11 01:54:29;;;;;;;71.43;27.52;;;3.60;99.90;;;;;;5073711;28;20063;-77
2022/12/11 01:57:00;;;;;;;79.38;27.58;;;3.60;99.90;;;;;;5073101;28;20441;-78
2022/12/11 01:59:29;;;;;;;71.97;27.65;;;3.50;99.90;;;;;;5074218;28;20029;-78
2022/12/11 02:02:02;;;;;;;65.75;24.90;;;3.40;99.90;;;;;;5074409;28;20112;-78
2022/12/11 02:04:28;;;;;;;73.18;26.65;;;3.40;99.90;;;;;;5074163;28;20101;-78
2022/12/11 02:06:54;;;;;;;78.28;27.48;;;3.40;99.90;;;;;;5072557;28;20115;-78
2022/12/11 02:09:31;;;;;;;74.38;24.98;;;3.30;99.90;;;;;;5072435;28;20032;-78
2022/12/11 02:12:30;;;;;;;70.10;25.17;;;3.30;99.90;;;;;;5074315;28;20024;-78
2022/12/11 02:15:09;;;;;;;77.25;25.98;;;3.30;99.90;;;;;;5074189;28;20020;-78
2022/12/11 02:17:44;;;;;;;73.93;25.48;;;3.40;99.90;;;;;;5072693;28;20029;-78
2022/12/11 02:20:20;;;;;;;73.88;26.05;;;3.40;99.90;;;;;;5073525;28;20074;-78
2022/12/11 02:23:02;;;;;;;73.63;26.02;;;3.40;99.90;;;;;;5070741;28;20032;-78
2022/12/11 02:25:33;;;;;;;73.32;25.58;;;3.40;99.90;;;;;;5060421;28;20025;-78
2022/12/11 02:28:28;;;;;;;75.80;26.95;;;3.50;99.90;;;;;;5071916;28;20506;-78
2022/12/11 02:30:59;;;;;;;81.68;28.00;;;3.50;99.90;;;;;;5073853;28;20029;-78
2022/12/11 02:33:36;;;;;;;78.45;26.52;;;3.50;99.90;;;;;;5072549;28;20072;-78
2022/12/11 02:36:03;;;;;;;79.82;27.48;;;3.50;99.90;;;;;;5071651;28;20247;-78
2022/12/11 02:38:34;;;;;;;76.68;27.60;;;3.50;99.90;;;;;;5072386;28;20025;-79
2022/12/11 02:41:01;;;;;;;77.70;27.27;;;3.50;99.90;;;;;;5062530;28;20389;-78
2022/12/11 02:43:30;;;;;;;77.38;27.75;;;3.50;99.90;;;;;;5069106;28;20045;-78
2022/12/11 02:45:57;;;;;;;83.03;27.02;;;3.50;99.90;;;;;;5053481;28;20021;-78
2022/12/11 02:48:23;;;;;;;76.93;27.48;;;3.50;99.90;;;;;;5052032;28;20033;-78
2022/12/11 02:50:54;;;;;;;93.43;27.30;;;3.60;99.90;;;;;;5085284;28;20059;-78
2022/12/11 02:53:24;;;;;;;79.32;26.88;;;3.60;99.90;;;;;;5053797;28;20017;-79
2022/12/11 02:55:58;;;;;;;86.75;28.27;;;3.60;99.90;;;;;;5061852;28;20119;-79
2022/12/11 02:58:28;;;;;;;86.80;30.30;;;3.50;99.90;;;;;;5072304;28;20067;-79
2022/12/11 03:00:54;;;;;;;73.57;25.65;;;3.50;99.90;;;;;;5072305;28;20077;-79
2022/12/11 03:03:20;;;;;;;74.13;26.77;;;3.50;99.90;;;;;;5072177;28;20411;-79
2022/12/11 03:05:46;;;;;;;81.15;27.20;;;3.50;99.90;;;;;;5072036;28;20488;-79
2022/12/11 03:08:17;;;;;;;95.20;27.60;;;3.50;99.90;;;;;;5072797;28;20060;-79
2022/12/11 03:10:44;;;;;;;72.82;26.35;;;3.50;99.90;;;;;;5076989;28;20033;-78
2022/12/11 03:13:12;;;;;;;81.38;29.00;;;3.50;99.90;;;;;;5051830;28;20029;-78
2022/12/11 03:15:42;;;;;;;75.97;27.60;;;3.50;99.90;;;;;;5052577;28;20029;-79
2022/12/11 03:18:23;;;;;;;88.55;28.35;;;3.50;99.90;;;;;;5052852;28;20039;-80
2022/12/11 03:20:59;;;;;;;84.53;28.35;;;3.50;99.90;;;;;;5052649;28;20111;-79
2022/12/11 03:23:44;;;;;;;86.85;28.20;;;3.50;99.90;;;;;;5053198;28;20025;-79
2022/12/11 03:26:15;;;;;;;87.10;28.60;;;3.50;99.90;;;;;;5084988;28;20354;-79
2022/12/11 03:28:47;;;;;;;87.18;30.77;;;3.40;99.90;;;;;;5068503;28;20033;-79
2022/12/11 03:31:29;;;;;;;87.57;30.02;;;3.40;99.90;;;;;;5052766;28;20082;-79
2022/12/11 03:33:59;;;;;;;90.82;30.77;;;3.30;99.90;;;;;;5052791;28;20079;-79
2022/12/11 03:36:31;;;;;;;84.15;29.38;;;3.30;99.90;;;;;;5052042;28;20025;-79
2022/12/11 03:39:02;;;;;;;87.32;28.65;;;3.40;99.90;;;;;;5053396;28;20096;-79
2022/12/11 03:41:30;;;;;;;84.78;29.00;;;3.40;99.90;;;;;;5073406;28;20020;-79
2022/12/11 03:43:57;;;;;;;76.50;26.92;;;3.40;99.90;;;;;;5071769;28;20025;-78
2022/12/11 03:46:29;;;;;;;84.55;29.05;;;3.40;99.90;;;;;;5071527;28;20492;-79
2022/12/11 03:49:00;;;;;;;87.38;29.45;;;3.50;99.90;;;;;;5072243;28;20028;-78
2022/12/11 03:51:27;;;;;;;85.10;28.20;;;3.50;99.90;;;;;;5075210;28;20480;-78
2022/12/11 03:53:54;;;;;;;81.40;28.35;;;3.50;99.90;;;;;;5074946;28;20852;-78
2022/12/11 03:56:21;;;;;;;80.78;29.40;;;3.50;99.90;;;;;;5059038;28;20025;-78
2022/12/11 03:58:47;;;;;;;71.68;27.60;;;3.60;99.90;;;;;;5075604;28;20051;-78
2022/12/11 04:01:13;;;;;;;77.80;27.73;;;3.70;99.90;;;;;;5075457;28;20469;-78
2022/12/11 04:03:38;;;;;;;91.75;31.48;;;3.70;99.90;;;;;;5075499;28;20461;-79
2022/12/11 04:06:04;;;;;;;76.53;29.20;;;3.70;99.90;;;;;;5076660;28;20456;-78
2022/12/11 04:08:30;;;;;;;76.03;28.63;;;3.70;99.90;;;;;;5091427;28;20056;-78
2022/12/11 04:13:40;;;;;;;78.88;28.25;;;3.70;99.90;;;;;;5067422;28;20073;-78
2022/12/11 04:16:06;;;;;;;80.15;28.52;;;3.80;99.90;;;;;;5076460;28;20522;-78
2022/12/11 04:24:16;;;;;;;80.32;28.27;;;3.80;99.90;;;;;;5076388;28;20555;-78
2022/12/11 04:26:45;;;;;;;79.00;28.17;;;3.90;99.90;;;;;;5076010;28;20557;-78
2022/12/11 04:29:12;;;;;;;82.18;27.17;;;3.90;99.90;;;;;;5057581;28;20534;-78
2022/12/11 04:31:38;;;;;;;80.85;29.33;;;3.90;99.90;;;;;;5056031;28;20079;-78
2022/12/11 04:34:04;;;;;;;79.93;28.83;;;3.90;99.90;;;;;;5056079;28;20033;-78
2022/12/11 04:36:30;;;;;;;77.35;28.23;;;3.90;99.90;;;;;;5055625;28;20493;-78
2022/12/11 04:38:55;;;;;;;78.75;29.05;;;3.90;99.90;;;;;;5054463;28;20086;-78
2022/12/11 04:41:21;;;;;;;79.65;28.95;;;4.00;99.90;;;;;;5061565;28;20515;-78
2022/12/11 04:43:47;;;;;;;79.97;27.73;;;4.00;99.90;;;;;;5061066;28;20039;-78
2022/12/11 04:46:19;;;;;;;75.20;29.67;;;4.00;99.90;;;;;;5055599;28;20036;-78
2022/12/11 04:48:45;;;;;;;72.63;28.02;;;4.00;99.90;;;;;;5055656;28;20086;-78
2022/12/11 04:51:11;;;;;;;77.03;29.00;;;4.10;99.90;;;;;;5053958;28;20503;-78
2022/12/11 04:53:36;;;;;;;72.57;28.95;;;4.10;99.90;;;;;;5037957;28;20029;-78
2022/12/11 04:56:11;;;;;;;80.38;29.17;;;4.10;99.90;;;;;;5054150;28;20459;-78
2022/12/11 04:58:38;;;;;;;72.75;28.95;;;4.10;99.90;;;;;;5056283;28;20079;-78
2022/12/11 05:01:15;;;;;;;71.60;29.48;;;4.20;99.90;;;;;;5055249;28;20497;-78
2022/12/11 05:03:41;;;;;;;68.78;28.92;;;4.20;99.90;;;;;;5054620;28;20029;-78
2022/12/11 05:06:08;;;;;;;70.93;28.92;;;4.20;99.90;;;;;;5054321;28;20036;-78
2022/12/11 05:08:36;;;;;;;66.93;28.52;;;4.20;99.90;;;;;;5058972;28;20051;-79
2022/12/11 05:11:05;;;;;;;70.82;30.52;;;4.10;99.90;;;;;;5074331;28;20032;-79
2022/12/11 05:13:31;;;;;;;71.82;30.67;;;4.10;99.90;;;;;;5073542;28;20469;-79
2022/12/11 05:15:58;;;;;;;66.18;28.98;;;4.10;99.90;;;;;;5075371;28;20457;-79
2022/12/11 05:18:23;;;;;;;74.65;30.40;;;4.10;99.90;;;;;;5057322;28;20036;-79
2022/12/11 05:20:57;;;;;;;67.30;31.15;;;4.10;99.90;;;;;;5056368;28;20029;-79
2022/12/11 05:23:24;;;;;;;72.18;31.15;;;4.10;99.90;;;;;;5073846;28;20111;-79
2022/12/11 05:25:58;;;;;;;65.68;29.25;;;4.00;99.90;;;;;;5073794;28;20081;-79
2022/12/11 05:28:26;;;;;;;64.43;30.20;;;4.00;99.90;;;;;;5067193;28;20025;-79
2022/12/11 05:31:00;;;;;;;69.82;30.88;;;4.00;99.90;;;;;;5054832;28;20029;-79
2022/12/11 05:33:26;;;;;;;68.88;29.55;;;3.90;99.90;;;;;;5063278;28;20035;-78
2022/12/11 05:35:52;;;;;;;64.60;29.63;;;3.90;99.90;;;;;;5056945;28;20074;-78
2022/12/11 05:38:18;;;;;;;61.25;28.13;;;4.00;99.90;;;;;;5073789;28;20119;-79
2022/12/11 05:40:44;;;;;;;67.18;31.33;;;4.00;99.90;;;;;;5074615;28;20042;-78
2022/12/11 05:43:10;;;;;;;60.53;29.45;;;4.00;99.90;;;;;;5074536;28;20036;-78
2022/12/11 05:45:35;;;;;;;64.78;30.42;;;4.00;99.90;;;;;;5072953;28;20039;-79
2022/12/11 05:48:01;;;;;;;63.40;30.02;;;4.00;99.90;;;;;;5072760;28;20060;-79
2022/12/11 05:50:27;;;;;;;63.30;27.55;;;3.90;99.90;;;;;;5073848;28;20107;-79
2022/12/11 05:52:52;;;;;;;62.40;29.50;;;3.90;99.90;;;;;;5073394;28;20025;-79
2022/12/11 05:55:18;;;;;;;66.15;29.83;;;3.90;99.90;;;;;;5056522;28;20460;-79
2022/12/11 05:57:43;;;;;;;60.72;30.27;;;3.90;99.90;;;;;;5074236;28;20124;-79
2022/12/11 06:00:12;;;;;;;62.00;29.48;;;3.90;99.90;;;;;;5073985;28;20466;-79
2022/12/11 06:02:37;;;;;;;54.97;28.00;;;3.80;99.90;;;;;;5074223;28;20034;-81
2022/12/11 06:05:03;;;;;;;53.33;26.10;;;3.80;99.90;;;;;;5090156;28;20028;-80
2022/12/11 06:07:29;;;;;;;62.85;29.85;;;3.80;99.90;;;;;;5072962;28;20162;-79
2022/12/11 06:09:54;;;;;;;58.47;28.65;;;3.80;99.90;;;;;;5073105;28;20123;-81
2022/12/11 06:12:20;;;;;;;58.78;28.35;;;3.80;99.90;;;;;;5071819;28;20029;-80
2022/12/11 06:14:46;;;;;;;58.90;28.45;;;3.90;99.90;;;;;;5072205;28;20062;-80
2022/12/11 06:17:11;;;;;;;58.90;28.13;;;3.90;99.90;;;;;;5071733;28;20040;-80
2022/12/11 06:19:37;;;;;;;57.67;28.73;;;3.90;99.90;;;;;;5073689;28;20079;-80
2022/12/11 06:22:03;;;;;;;54.05;29.60;;;3.90;99.90;;;;;;5055351;28;20035;-80
2022/12/11 06:24:29;;;;;;;52.05;26.92;;;3.90;99.90;;;;;;5056211;28;20486;-80
2022/12/11 06:26:55;;;;;;;53.25;28.38;;;3.90;99.90;;;;;;5089396;28;20035;-80
2022/12/11 06:29:20;;;;;;;53.78;28.88;;;3.80;99.90;;;;;;5073863;28;20086;-80
2022/12/11 06:31:46;;;;;;;54.65;28.65;;;3.80;99.90;;;;;;5072990;28;20044;-78
2022/12/11 06:34:12;;;;;;;54.22;29.55;;;3.80;99.90;;;;;;5036179;28;20120;-80
2022/12/11 06:36:38;;;;;;;56.42;29.27;;;3.80;99.90;;;;;;5053893;28;20064;-80
2022/12/11 06:39:04;;;;;;;53.85;26.70;;;3.80;99.90;;;;;;5036032;28;20036;-80
2022/12/11 06:41:30;;;;;;;51.30;28.55;;;3.70;99.90;;;;;;5052684;28;20029;-79
2022/12/11 06:43:55;;;;;;;55.05;27.10;;;3.70;99.90;;;;;;5035803;28;20036;-79
2022/12/11 06:46:21;;;;;;;52.38;27.90;;;3.60;99.90;;;;;;5052323;28;20033;-79
2022/12/11 06:48:47;;;;;;;51.08;26.35;;;3.60;99.90;;;;;;5054257;28;20041;-80
2022/12/11 06:51:16;;;;;;;46.92;25.67;;;3.60;99.90;;;;;;5055650;28;20444;-80
2022/12/11 06:53:41;;;;;;;46.10;25.52;;;3.60;99.90;;;;;;5055109;28;20021;-80
2022/12/11 06:56:10;;;;;;;41.65;23.40;;;3.60;99.90;;;;;;5056261;28;20102;-80
2022/12/11 06:58:37;;;;;;;42.45;24.45;;;3.50;99.90;;;;;;5072229;28;20028;-79
2022/12/11 07:01:04;;;;;;;41.85;22.73;;;3.50;99.90;;;;;;5073588;28;20056;-80
2022/12/11 07:03:30;;;;;;;45.13;23.45;;;3.40;99.90;;;;;;5073120;28;20112;-80
2022/12/11 07:06:02;;;;;;;43.00;22.77;;;3.50;99.90;;;;;;5069697;28;20108;-80
2022/12/11 07:08:28;;;;;;;42.35;23.02;;;3.50;99.90;;;;;;5072265;28;20131;-80
2022/12/11 07:10:54;;;;;;;39.72;23.23;;;3.50;99.90;;;;;;5073531;28;20067;-80
2022/12/11 07:13:20;;;;;;;42.33;23.33;;;3.50;99.90;;;;;;5071987;28;20075;-79
2022/12/11 07:15:45;;;;;;;43.67;24.38;;;3.50;99.90;;;;;;5071799;28;20029;-80
2022/12/11 07:18:11;;;;;;;41.85;22.63;;;3.50;99.90;;;;;;5088627;28;20040;-80
2022/12/11 07:20:36;;;;;;;44.05;24.00;;;3.50;99.90;;;;;;5052977;28;20039;-79
2022/12/11 07:23:02;;;;;;;41.42;22.85;;;3.50;99.90;;;;;;5036600;28;20029;-79
2022/12/11 07:25:28;;;;;;;40.40;22.83;;;3.50;99.90;;;;;;5072764;28;20029;-80
2022/12/11 07:27:53;;;;;;;40.05;22.58;;;3.60;99.90;;;;;;5039320;28;20033;-79
2022/12/11 07:30:19;;;;;;;43.50;22.52;;;3.60;99.90;;;;;;5072818;28;20036;-79
2022/12/11 07:32:44;;;;;;;38.40;22.15;;;3.50;99.90;;;;;;5055845;28;20087;-79
2022/12/11 07:35:10;;;;;;;35.67;20.63;;;3.50;99.90;;;;;;5040495;28;20025;-79
2022/12/11 07:37:38;;;;;;;37.13;21.25;;;3.40;99.90;;;;;;5072341;28;20059;-80
2022/12/11 07:40:04;;;;;;;36.65;21.23;;;3.40;99.90;;;;;;5089429;28;20029;-78
2022/12/11 07:42:30;;;;;;;33.67;18.83;;;3.40;99.90;;;;;;5072618;28;20033;-79
2022/12/11 07:44:55;;;;;;;31.70;19.42;;;3.40;99.90;;;;;;5089391;28;20036;-79
2022/12/11 07:47:21;;;;;;;34.85;20.35;;;3.40;99.90;;;;;;5055560;28;20496;-79
2022/12/11 07:49:47;;;;;;;37.03;21.63;;;3.40;99.90;;;;;;5068686;28;20043;-78
2022/12/11 07:52:13;;;;;;;34.50;20.52;;;3.40;99.90;;;;;;5080121;28;20380;-77
2022/12/11 07:54:38;;;;;;;31.52;18.27;;;3.40;99.90;;;;;;5077430;28;20025;-78
2022/12/11 07:57:05;;;;;;;35.63;20.90;;;3.40;99.90;;;;;;5064993;28;20127;-78
2022/12/11 07:59:31;;;;;;;36.03;22.00;;;3.40;99.90;;;;;;5056560;28;20186;-80
2022/12/11 08:01:56;;;;;;;33.33;20.17;;;3.40;99.90;;;;;;5066979;28;21334;-77
2022/12/11 08:04:22;;;;;;;34.75;19.42;;;3.40;99.90;;;;;;5062875;28;20029;-78
2022/12/11 08:06:47;;;;;;;34.38;20.15;;;3.50;99.90;;;;;;5070752;28;20069;-78
2022/12/11 08:09:13;;;;;;;31.15;19.48;;;3.60;99.90;;;;;;5057770;28;20049;-80
2022/12/11 08:11:39;;;;;;;31.50;19.25;;;3.60;99.90;;;;;;5073605;28;20036;-80
2022/12/11 08:14:06;;;;;;;31.17;18.13;;;3.60;99.90;;;;;;5043026;28;20033;-80
2022/12/11 08:16:32;;;;;;;27.80;17.48;;;3.60;99.90;;;;;;5055297;28;20036;-80
2022/12/11 08:18:58;;;;;;;26.65;14.93;;;3.70;99.90;;;;;;5058045;28;20078;-79
2022/12/11 08:21:26;;;;;;;26.65;16.17;;;3.80;99.90;;;;;;5074428;28;20025;-79
2022/12/11 08:23:52;;;;;;;28.63;15.15;;;3.80;99.90;;;;;;5072208;28;20039;-78
2022/12/11 08:26:24;;;;;;;28.52;16.30;;;3.80;99.90;;;;;;5069789;28;20094;-79
2022/12/11 08:28:50;;;;;;;23.05;14.20;;;3.80;99.90;;;;;;5076147;28;20020;-79
2022/12/11 08:31:16;;;;;;;23.45;14.63;;;3.80;99.90;;;;;;5075542;28;20033;-79
2022/12/11 08:33:43;;;;;;;23.27;14.88;;;3.80;99.90;;;;;;5061712;28;20033;-79
2022/12/11 08:36:12;;;;;;;28.98;15.68;;;3.80;99.90;;;;;;5076713;28;20055;-80
2022/12/11 08:38:38;;;;;;;23.60;14.20;;;3.80;99.90;;;;;;5061957;28;20082;-80
2022/12/11 08:41:10;;;;;;;23.35;13.98;;;3.80;99.90;;;;;;5074456;28;20024;-79
2022/12/11 08:43:36;;;;;;;24.90;15.60;;;3.80;99.90;;;;;;5064638;28;20032;-78
2022/12/11 08:46:01;;;;;;;26.95;14.77;;;3.80;99.90;;;;;;5055857;28;20025;-79
2022/12/11 08:48:27;;;;;;;24.10;14.70;;;3.80;99.90;;;;;;5054358;28;20389;-79
2022/12/11 08:50:53;;;;;;;27.17;15.55;;;3.90;99.90;;;;;;5052532;28;20044;-80
2022/12/11 08:53:18;;;;;;;27.02;16.38;;;3.90;99.90;;;;;;5071292;28;20037;-79
2022/12/11 08:55:44;;;;;;;25.63;15.02;;;3.90;99.90;;;;;;5053930;28;20477;-80
2022/12/11 08:58:09;;;;;;;24.98;13.70;;;3.90;99.90;;;;;;5061790;28;20041;-79
2022/12/11 09:00:35;;;;;;;21.30;13.13;;;4.00;99.90;;;;;;5063244;28;20374;-80
2022/12/11 09:03:01;;;;;;;24.27;13.43;;;4.00;99.90;;;;;;5059755;28;20021;-79
2022/12/11 09:05:27;;;;;;;24.40;13.50;;;4.00;99.90;;;;;;5055319;28;20139;-79
2022/12/11 09:07:52;;;;;;;23.08;12.52;;;4.10;99.90;;;;;;5056674;28;20057;-80
2022/12/11 09:10:18;;;;;;;21.48;11.88;;;4.20;99.90;;;;;;5056292;28;20538;-80
2022/12/11 09:12:44;;;;;;;24.63;13.35;;;4.30;99.90;;;;;;5073409;28;20086;-79
2022/12/11 09:15:10;;;;;;;20.38;11.38;;;4.40;99.90;;;;;;5078085;28;20032;-79
2022/12/11 09:17:35;;;;;;;21.58;13.18;;;4.50;99.90;;;;;;5064639;28;20032;-80
2022/12/11 09:20:01;;;;;;;23.85;14.40;;;4.60;99.90;;;;;;5041487;28;20035;-80
2022/12/11 09:22:27;;;;;;;24.08;14.85;;;4.70;99.90;;;;;;5074095;28;20384;-81
2022/12/11 09:24:53;;;;;;;25.38;15.50;;;4.70;99.90;;;;;;5074836;28;20087;-81
2022/12/11 09:27:20;;;;;;;25.63;16.27;;;4.70;99.90;;;;;;5073769;28;20054;-81
2022/12/11 09:29:45;;;;;;;23.98;15.27;;;4.70;99.40;;;;;;5073396;28;20115;-80
2022/12/11 09:32:11;;;;;;;25.40;15.90;;;4.60;98.90;;;;;;5075113;28;20116;-79
2022/12/11 09:34:37;;;;;;;24.25;15.23;;;4.60;98.90;;;;;;5073629;28;20024;-80
2022/12/11 09:37:02;;;;;;;21.33;13.65;;;4.60;99.10;;;;;;5073058;28;20537;-80
2022/12/11 09:39:28;;;;;;;23.95;15.18;;;4.70;99.30;;;;;;5067268;28;20120;-80
2022/12/11 09:42:00;;;;;;;22.58;13.13;;;4.70;99.30;;;;;;5069432;28;20036;-81
2022/12/11 09:44:49;;;;;;;23.42;13.45;;;4.80;99.30;;;;;;5074281;28;20020;-80
2022/12/11 09:47:20;;;;;;;22.75;13.75;;;4.80;99.40;;;;;;5072958;28;20538;-80
2022/12/11 09:49:48;;;;;;;23.48;14.10;;;4.80;99.20;;;;;;5073213;28;20031;-78
2022/12/11 09:52:20;;;;;;;24.98;14.45;;;4.80;99.30;;;;;;5072634;28;20025;-80
2022/12/11 09:54:56;;;;;;;20.60;13.43;;;4.90;99.40;;;;;;5072322;28;20030;-79
2022/12/11 09:57:42;;;;;;;24.77;15.20;;;5.00;99.20;;;;;;5073858;28;20043;-80
2022/12/11 10:00:20;;;;;;;24.10;14.70;;;4.90;98.60;;;;;;5073931;28;20472;-79
2022/12/11 10:03:12;;;;;;;25.35;15.07;;;4.90;98.60;;;;;;5074415;28;20349;-79
2022/12/11 10:06:15;;;;;;;24.35;15.45;;;4.90;98.50;;;;;;5072596;28;20047;-80
2022/12/11 10:09:04;;;;;;;22.40;13.00;;;4.90;98.50;;;;;;5056148;28;20378;-79
2022/12/11 10:12:04;;;;;;;26.60;16.08;;;4.80;97.70;;;;;;5070656;28;20024;-80
2022/12/11 10:14:44;;;;;;;24.70;14.40;;;4.70;97.40;;;;;;5074081;28;20480;-80
2022/12/11 10:17:29;;;;;;;25.02;14.63;;;4.60;97.70;;;;;;5056792;28;20113;-80
2022/12/11 10:19:59;;;;;;;21.20;13.75;;;4.70;98.10;;;;;;5070001;28;20027;-80
2022/12/11 10:22:29;;;;;;;21.95;14.38;;;4.70;98.30;;;;;;5072815;28;20388;-80
2022/12/11 10:25:13;;;;;;;26.23;15.05;;;4.90;98.30;;;;;;5062965;28;20025;-81
2022/12/11 10:27:39;;;;;;;22.33;14.32;;;4.90;98.10;;;;;;5072415;28;20055;-80
2022/12/11 10:30:24;;;;;;;22.10;14.20;;;4.90;98.00;;;;;;5072710;28;20480;-80
2022/12/11 10:32:56;;;;;;;22.27;13.52;;;4.90;98.10;;;;;;5072546;28;20021;-80
2022/12/11 10:35:40;;;;;;;23.80;13.90;;;4.90;98.20;;;;;;5073462;28;20024;-80
2022/12/11 10:38:24;;;;;;;;;;;5.00;98.30;;;;;;5073806;28;20032;-80
2022/12/11 10:40:54;;;;;;;22.65;13.75;;;5.10;98.20;;;;;;5072605;28;19947;-78
2022/12/11 10:43:19;;;;;;;25.48;15.38;;;5.10;97.70;;;;;;5077605;28;20028;-78
2022/12/11 10:45:53;;;;;;;24.48;15.55;;;5.10;97.60;;;;;;5079853;28;20085;-79
2022/12/11 10:48:19;;;;;;;25.27;15.88;;;5.00;97.50;;;;;;5074669;28;20059;-79
2022/12/11 10:50:55;;;;;;;23.15;15.48;;;5.00;97.60;;;;;;5076670;28;20394;-77
2022/12/11 10:53:22;;;;;;;22.42;14.75;;;5.00;97.70;;;;;;5074298;28;20469;-79
2022/12/11 10:55:49;;;;;;;24.52;15.27;;;5.00;97.70;;;;;;5073427;28;20029;-79
2022/12/11 10:58:24;;;;;;;21.85;14.23;;;5.00;97.80;;;;;;5071417;28;20043;-79
2022/12/11 11:01:15;;;;;;;26.15;15.23;;;5.00;97.90;;;;;;5072060;28;20078;-79
2022/12/11 11:03:52;;;;;;;28.80;16.60;;;5.00;97.70;;;;;;5066711;28;20028;-79
2022/12/11 11:06:20;;;;;;;22.33;14.50;;;5.10;97.60;;;;;;5064216;28;20037;-78
2022/12/11 11:08:59;;;;;;;21.98;14.93;;;5.00;97.60;;;;;;5056056;28;20048;-80
2022/12/11 11:11:26;;;;;;;23.23;14.40;;;5.00;97.70;;;;;;5069068;28;20534;-77
2022/12/11 11:14:04;;;;;;;25.15;15.57;;;5.00;97.70;;;;;;5074610;28;20035;-80
2022/12/11 11:16:30;;;;;;;20.52;14.32;;;5.00;97.70;;;;;;5066905;28;20024;-80
2022/12/11 11:18:57;;;;;;;22.35;14.73;;;5.00;97.90;;;;;;5082832;28;20097;-80
2022/12/11 11:21:25;;;;;;;25.38;15.90;;;5.00;98.00;;;;;;5063770;28;20083;-81
2022/12/11 11:23:53;;;;;;;21.33;14.77;;;5.10;98.00;;;;;;5051850;28;20036;-80
2022/12/11 11:26:19;;;;;;;24.23;15.98;;;5.10;97.90;;;;;;5046991;28;20082;-79
2022/12/11 11:28:54;;;;;;;22.88;14.82;;;5.10;97.90;;;;;;5071593;28;20039;-79
2022/12/11 11:31:32;;;;;;;25.33;16.25;;;5.20;97.90;;;;;;5061330;28;20078;-79
2022/12/11 11:34:02;;;;;;;29.30;16.33;;;5.20;97.80;;;;;;5067104;28;20453;-79
2022/12/11 11:36:31;;;;;;;25.60;16.98;;;5.30;97.70;;;;;;5051805;28;20048;-79
2022/12/11 11:39:17;;;;;;;27.98;17.33;;;5.30;97.50;;;;;;5063599;28;20029;-79
2022/12/11 11:41:47;;;;;;;24.35;16.45;;;5.30;97.60;;;;;;5041735;28;20069;-79
2022/12/11 11:44:18;;;;;;;26.05;16.95;;;5.30;97.50;;;;;;5051092;28;20021;-79
2022/12/11 11:46:53;;;;;;;24.48;17.15;;;5.40;97.50;;;;;;5052711;28;20024;-80
2022/12/11 11:49:45;;;;;;;30.20;17.75;;;5.40;97.30;;;;;;5052754;28;20024;-80
2022/12/11 11:52:40;;;;;;;27.95;17.65;;;5.30;97.30;;;;;;5050654;28;20504;-79
2022/12/11 11:55:14;;;;;;;23.55;15.35;;;5.30;97.10;;;;;;5044394;28;20059;-80
2022/12/11 11:57:55;;;;;;;27.33;17.30;;;5.30;97.10;;;;;;5052586;28;20096;-79
2022/12/11 12:00:26;;;;;;;22.60;15.02;;;5.20;97.00;;;;;;5053950;28;20025;-80
2022/12/11 12:02:59;;;;;;;24.27;15.55;;;5.20;97.30;;;;;;5053220;28;20044;-80
2022/12/11 12:05:33;;;;;;;21.55;14.32;;;5.20;97.50;;;;;;5051565;28;20427;-80
2022/12/11 12:08:27;;;;;;;22.90;14.02;;;5.30;97.50;;;;;;5049584;28;20056;-80
2022/12/11 12:11:02;;;;;;;25.80;14.90;;;5.20;97.30;;;;;;5051891;28;20041;-81
2022/12/11 12:13:35;;;;;;;24.38;15.52;;;5.30;97.40;;;;;;5056900;28;20068;-80
2022/12/11 12:16:01;;;;;;;25.92;15.20;;;5.30;97.20;;;;;;5062785;28;20588;-80
2022/12/11 12:18:49;;;;;;;27.67;16.65;;;5.20;97.10;;;;;;5054934;28;20358;-79
2022/12/11 12:21:29;;;;;;;23.77;14.98;;;5.20;97.00;;;;;;5054101;28;20033;-80
2022/12/11 12:24:27;;;;;;;27.30;15.52;;;5.20;97.00;;;;;;5054711;28;20129;-80
2022/12/11 12:27:02;;;;;;;24.50;14.18;;;5.20;97.10;;;;;;5054544;28;20047;-79
2022/12/11 12:29:51;;;;;;;26.15;15.88;;;5.20;97.10;;;;;;5054706;28;20492;-79
2022/12/11 12:32:28;;;;;;;26.25;15.80;;;5.20;97.20;;;;;;5050108;28;20474;-79
2022/12/11 12:35:10;;;;;;;21.80;14.10;;;5.20;97.20;;;;;;5055457;28;20087;-80
2022/12/11 12:37:48;;;;;;;24.27;15.63;;;5.20;97.50;;;;;;5054498;28;20108;-78
2022/12/11 12:40:20;;;;;;;26.55;15.60;;;5.20;97.00;;;;;;5053945;28;20059;-79
2022/12/11 12:42:59;;;;;;;25.60;15.80;;;5.10;97.00;;;;;;5055611;28;20021;-79
2022/12/11 12:45:43;;;;;;;24.58;15.30;;;5.10;97.10;;;;;;5055555;28;20465;-80
2022/12/11 12:48:09;;;;;;;22.58;14.35;;;5.00;97.20;;;;;;5053980;28;20072;-80
2022/12/11 12:50:42;;;;;;;25.42;15.50;;;5.00;97.30;;;;;;5055393;28;20033;-80
2022/12/11 12:53:13;;;;;;;;;;;5.10;97.40;;;;;;5061948;28;20025;-77
2022/12/11 12:55:39;;;;;;;27.40;15.88;;;5.10;97.60;;;;;;5061375;28;19962;-79
2022/12/11 12:58:06;;;;;;;26.13;15.45;;;5.10;97.50;;;;;;5054687;28;20098;-80
2022/12/11 13:00:33;;;;;;;25.50;15.32;;;5.20;97.30;;;;;;5070340;28;20028;-78
2022/12/11 13:03:29;;;;;;;26.65;15.90;;;5.20;97.10;;;;;;5055437;28;20036;-76